Time;durP1;ratioP1;P1;durP2;ratioP2;P2;SDS_P1;SDS_P2;PMS_P1;PMS_P2;Temp;Humidity;BMP_temperature;BMP_pressure;BME280_temperature;BME280_humidity;BME280_pressure;Samples;Min_cycle;Max_cycle;Signal;HPM_P1;HPM_P2
2023/04/03 00:07:49;;;;;;;2.33;1.30;;;;;;;13.25;51.13;98713.41;5087774;28;20195;-53
2023/04/03 00:10:42;;;;;;;1.47;1.30;;;;;;;13.16;51.40;98713.06;5089986;28;20222;-52
2023/04/03 00:16:34;;;;;;;1.10;1.10;;;;;;;13.07;51.31;98715.19;5088698;28;20199;-53
2023/04/03 00:22:28;;;;;;;1.20;1.10;;;;;;;12.99;52.21;98712.13;5087115;28;20199;-54
2023/04/03 00:25:15;;;;;;;1.00;1.00;;;;;;;13.08;51.67;98724.69;5089469;28;20199;-53
2023/04/03 00:28:29;;;;;;;;;;;;;;;;;;;;;
2023/04/03 00:31:13;;;;;;;2.33;1.27;;;;;;;12.97;51.91;98713.13;5082336;28;20207;-54
2023/04/03 00:34:15;;;;;;;1.30;1.20;;;;;;;12.96;52.13;98719.28;5089629;28;20231;-54
2023/04/03 00:37:13;;;;;;;1.10;1.10;;;;;;;12.99;52.38;98712.13;5089921;28;20199;-54
2023/04/03 00:40:13;;;;;;;3.40;1.30;;;;;;;12.97;52.34;98711.38;5089804;28;20207;-54
2023/04/03 00:43:22;;;;;;;1.23;1.23;;;;;;;12.89;52.52;98720.47;5089956;28;20702;-53
2023/04/03 00:46:21;;;;;;;1.30;1.20;;;;;;;12.69;53.53;98726.69;5089053;28;20195;-53
2023/04/03 00:58:39;;;;;;;1.40;1.30;;;;;;;12.55;54.54;98719.56;5087881;28;20603;-54
2023/04/03 01:07:38;;;;;;;3.13;1.47;;;;;;;12.49;55.17;98716.44;5087059;28;20231;-53
2023/04/03 01:16:51;;;;;;;1.73;1.60;;;;;;;12.06;56.81;98687.31;5087385;28;20203;-54
2023/04/03 01:20:15;;;;;;;3.00;1.40;;;;;;;12.10;57.18;98711.41;5089589;28;20195;-53
2023/04/03 01:23:39;;;;;;;5.60;2.13;;;;;;;12.08;56.94;98695.00;5089528;28;20204;-54
2023/04/03 01:26:42;;;;;;;1.70;1.60;;;;;;;12.06;57.65;98710.72;5088519;28;20191;-53
2023/04/03 01:29:38;;;;;;;1.90;1.80;;;;;;;12.02;57.79;98716.97;5089262;28;20631;-53
2023/04/03 01:32:42;;;;;;;2.27;1.60;;;;;;;11.98;58.37;98715.41;5086638;28;20246;-53
2023/04/03 01:35:36;;;;;;;4.40;1.70;;;;;;;12.00;58.67;98703.19;5093362;28;20199;-54
2023/04/03 01:41:32;;;;;;;1.60;1.50;;;;;;;12.11;58.46;98705.28;5091928;28;20202;-53
2023/04/03 01:53:25;;;;;;;2.10;1.87;;;;;;;11.96;59.24;98712.88;5088388;28;20293;-53
2023/04/03 01:59:30;;;;;;;2.27;1.90;;;;;;;12.10;59.00;98724.41;5092755;28;20199;-54
2023/04/03 02:02:28;;;;;;;1.90;1.73;;;;;;;12.14;58.71;98731.16;5092568;28;20290;-54
2023/04/03 02:05:44;;;;;;;1.60;1.50;;;;;;;12.15;58.44;98720.69;5092710;28;20230;-54
2023/04/03 02:08:44;;;;;;;1.90;1.80;;;;;;;12.10;58.68;98725.25;5092674;28;20202;-54
2023/04/03 02:14:35;;;;;;;2.23;2.13;;;;;;;12.00;58.52;98708.38;5049501;28;20596;-52
2023/04/03 02:17:13;;;;;;;4.87;2.27;;;;;;;12.15;58.19;98725.03;5051270;28;20199;-52
2023/04/03 02:20:17;;;;;;;6.40;2.90;;;;;;;12.17;58.20;98721.44;5051089;28;20197;-53
2023/04/03 02:23:27;;;;;;;3.40;3.10;;;;;;;12.05;58.32;98722.03;5051809;28;20212;-54
2023/04/03 02:26:46;;;;;;;3.27;2.97;;;;;;;12.03;58.48;98726.47;5051037;28;20197;-54
2023/04/03 02:42:07;;;;;;;2.20;2.10;;;;;;;11.71;58.43;98732.28;5050980;28;20644;-54
2023/04/03 02:45:05;;;;;;;4.27;2.07;;;;;;;11.80;58.91;98726.69;5046084;28;20314;-53
2023/04/03 02:47:57;;;;;;;2.40;2.20;;;;;;;11.76;58.43;98725.13;5052129;28;20196;-53
2023/04/03 02:54:01;;;;;;;2.40;2.20;;;;;;;11.53;58.84;98715.75;5051669;28;20196;-53
2023/04/03 02:57:08;;;;;;;3.10;2.20;;;;;;;11.54;58.79;98726.09;5050678;28;20310;-54
2023/04/03 03:00:05;;;;;;;2.07;1.97;;;;;;;11.43;59.64;98724.88;5050577;28;20580;-54
2023/04/03 03:02:41;;;;;;;2.60;2.40;;;;;;;11.32;60.24;98722.75;5051346;28;20528;-52
2023/04/03 03:05:35;;;;;;;2.80;2.60;;;;;;;11.35;60.34;98722.63;5051414;28;20697;-53
2023/04/03 03:08:05;;;;;;;2.53;2.33;;;;;;;11.42;59.76;98713.63;5050327;28;20722;-53
2023/04/03 03:10:46;;;;;;;3.90;2.07;;;;;;;11.34;60.19;98709.72;5050659;28;20239;-54
2023/04/03 03:13:25;;;;;;;2.50;2.30;;;;;;;11.25;59.90;98704.03;5084087;28;20233;-53
2023/04/03 03:16:12;;;;;;;3.80;2.10;;;;;;;11.25;59.93;98700.56;5088716;28;20195;-54
2023/04/03 03:19:00;;;;;;;2.80;2.60;;;;;;;11.17;59.95;98706.09;5091701;28;20681;-53
2023/04/03 03:21:34;;;;;;;4.80;2.70;;;;;;;11.12;60.55;98699.44;5090238;28;20195;-53
2023/04/03 03:24:15;;;;;;;2.67;2.43;;;;;;;11.13;61.12;98706.31;5091074;28;20230;-54
2023/04/03 03:26:48;;;;;;;3.17;2.97;;;;;;;11.13;60.95;98699.38;5090646;28;20273;-51
2023/04/03 03:29:36;;;;;;;7.87;3.10;;;;;;;11.04;61.38;98685.94;5091001;28;20282;-52
2023/04/03 03:32:23;;;;;;;3.43;3.13;;;;;;;11.00;62.08;98682.63;5091045;28;20683;-54
2023/04/03 03:34:58;;;;;;;4.63;2.70;;;;;;;10.91;61.83;98665.72;5090958;28;20678;-52
2023/04/03 03:37:30;;;;;;;3.30;3.00;;;;;;;11.10;61.76;98688.25;5091403;28;20336;-53
2023/04/03 03:40:01;;;;;;;3.70;3.40;;;;;;;10.97;61.57;98674.13;5090382;28;20196;-53
2023/04/03 03:42:30;;;;;;;5.27;2.83;;;;;;;10.90;62.27;98689.13;5090784;28;20231;-53
2023/04/03 03:45:32;;;;;;;3.03;2.83;;;;;;;10.83;62.80;98685.97;5090815;28;20249;-54
2023/04/03 03:48:14;;;;;;;4.10;2.80;;;;;;;10.90;62.70;98695.16;5090807;28;20194;-53
2023/04/03 03:51:17;;;;;;;3.00;2.80;;;;;;;10.90;62.95;98695.16;5090901;28;20217;-54
2023/04/03 03:54:23;;;;;;;3.50;3.20;;;;;;;10.91;62.97;98694.25;5090491;28;20294;-53
2023/04/03 03:57:28;;;;;;;3.80;3.50;;;;;;;10.84;63.74;98703.19;5086694;28;20594;-51
2023/04/03 04:00:15;;;;;;;7.00;3.70;;;;;;;10.85;63.47;98697.09;5090596;28;20230;-52
2023/04/03 04:03:23;;;;;;;6.07;4.10;;;;;;;10.89;63.71;98706.47;5089842;28;20592;-52
2023/04/03 04:06:12;;;;;;;7.27;3.93;;;;;;;10.88;64.37;98709.97;5089879;28;20286;-53
2023/04/03 04:09:00;;;;;;;5.03;3.50;;;;;;;10.90;63.41;98720.28;5075612;28;20220;-50
2023/04/03 04:11:46;;;;;;;5.97;3.40;;;;;;;10.93;63.17;98727.94;5068540;28;20226;-52
2023/04/03 04:14:21;;;;;;;7.33;4.53;;;;;;;10.88;63.44;98732.47;5067217;28;20675;-50
2023/04/03 04:17:03;;;;;;;5.43;4.93;;;;;;;10.94;63.56;98715.81;5068754;28;20215;-50
2023/04/03 04:19:49;;;;;;;8.90;4.83;;;;;;;11.00;63.68;98725.94;5068712;28;20219;-51
2023/04/03 04:22:26;;;;;;;10.13;5.93;;;;;;;11.07;63.37;98741.16;5068677;28;20215;-49
2023/04/03 04:25:01;;;;;;;12.50;5.80;;;;;;;11.14;62.85;98744.34;5066326;28;20227;-53
2023/04/03 04:27:47;;;;;;;7.80;4.97;;;;;;;11.18;62.42;98754.53;5069152;28;20243;-50
2023/04/03 04:30:30;;;;;;;7.60;5.00;;;;;;;11.30;62.32;98753.16;5069267;28;20223;-52
2023/04/03 04:33:17;;;;;;;7.43;5.60;;;;;;;11.39;61.41;98752.78;5069383;28;20468;-51
2023/04/03 04:36:06;;;;;;;11.00;5.30;;;;;;;11.43;60.96;98743.06;5088999;28;20303;-52
2023/04/03 04:38:52;;;;;;;13.33;6.20;;;;;;;11.62;60.80;98757.75;5085688;28;20297;-54
2023/04/03 04:41:46;;;;;;;10.23;6.73;;;;;;;11.85;60.25;98748.94;5068683;28;20687;-55
2023/04/03 04:44:26;;;;;;;25.80;15.73;;;;;;;11.97;60.63;98752.72;5067793;28;20238;-54
2023/04/03 04:47:05;;;;;;;14.27;8.07;;;;;;;12.16;59.99;98748.38;5068874;28;20250;-51
2023/04/03 04:49:48;;;;;;;17.70;6.80;;;;;;;12.33;59.85;98748.41;5068183;28;20223;-52
2023/04/03 04:52:28;;;;;;;7.73;5.97;;;;;;;12.48;58.93;98739.03;5067538;28;20225;-55
2023/04/03 04:55:09;;;;;;;21.67;8.77;;;;;;;12.62;59.79;98766.97;5066788;28;20224;-54
2023/04/03 04:57:40;;;;;;;15.13;7.50;;;;;;;12.49;59.78;98756.31;5064619;28;20738;-51
2023/04/03 05:03:35;;;;;;;24.30;9.07;;;;;;;12.27;59.60;98781.69;5085072;28;20241;-51
2023/04/03 05:06:29;;;;;;;18.73;10.03;;;;;;;12.12;60.07;98772.84;5069147;28;20210;-51
2023/04/03 05:09:19;;;;;;;18.97;8.80;;;;;;;12.04;60.50;98772.34;5069079;28;20299;-54
2023/04/03 05:15:23;;;;;;;21.20;8.93;;;;;;;11.89;60.97;98773.06;5067531;28;20282;-52
2023/04/03 05:18:15;;;;;;;15.07;8.27;;;;;;;11.58;62.24;98766.63;5069048;28;20199;-51
2023/04/03 05:21:14;;;;;;;15.97;7.67;;;;;;;11.62;62.51;98783.75;5069269;28;20591;-55
2023/04/03 05:23:47;;;;;;;10.67;7.73;;;;;;;11.71;62.14;98781.69;5069038;28;20195;-54
2023/04/03 05:26:32;;;;;;;13.27;6.93;;;;;;;11.80;61.48;98787.31;5069152;28;20199;-54
2023/04/03 05:29:30;;;;;;;18.47;7.50;;;;;;;11.65;61.69;98773.22;5068395;28;20227;-50
2023/04/03 05:32:04;;;;;;;17.47;7.87;;;;;;;11.91;61.27;98792.03;5068442;28;20203;-52
2023/04/03 05:34:56;;;;;;;13.23;7.70;;;;;;;11.99;60.95;98798.56;5068982;28;20193;-54
2023/04/03 05:37:40;;;;;;;12.77;7.63;;;;;;;12.17;60.39;98794.28;5067517;28;20249;-49
2023/04/03 05:46:28;;;;;;;9.80;7.57;;;;;;;12.42;59.41;98799.16;5067819;28;20231;-52
2023/04/03 05:52:33;;;;;;;13.97;9.00;;;;;;;12.57;58.67;98808.00;5067518;28;20722;-54
2023/04/03 05:55:35;;;;;;;12.20;8.87;;;;;;;12.31;58.94;98780.59;5068890;28;20196;-54
2023/04/03 05:58:30;;;;;;;15.60;8.40;;;;;;;12.68;58.74;98809.16;5068356;28;20586;-54
2023/04/03 06:01:29;;;;;;;20.00;9.40;;;;;;;12.83;58.54;98807.59;5068757;28;20590;-54
2023/04/03 06:07:09;;;;;;;21.67;9.20;;;;;;;12.89;57.55;98812.47;5065464;28;20590;-51
2023/04/03 06:10:21;;;;;;;16.83;8.77;;;;;;;12.82;57.91;98808.50;5068829;28;20206;-51
2023/04/03 06:16:31;;;;;;;12.33;8.83;;;;;;;12.78;57.88;98812.16;5068974;28;20671;-55
2023/04/03 06:19:24;;;;;;;12.70;7.57;;;;;;;12.91;57.51;98823.66;5069113;28;20196;-55
2023/04/03 06:21:51;;;;;;;17.60;7.97;;;;;;;12.82;57.72;98812.88;5071956;28;20199;-51
2023/04/03 06:24:19;;;;;;;16.80;8.30;;;;;;;12.74;57.64;98821.06;5072307;28;20701;-52
2023/04/03 06:26:47;;;;;;;19.73;9.07;;;;;;;12.63;58.17;98794.72;5072219;28;20279;-51
2023/04/03 06:29:14;;;;;;;21.37;9.10;;;;;;;12.86;58.24;98823.06;5072502;28;20204;-52
2023/04/03 06:31:42;;;;;;;21.77;8.73;;;;;;;13.06;57.77;98806.44;5072273;28;20196;-54
2023/04/03 06:34:37;;;;;;;16.20;8.77;;;;;;;13.15;57.67;98798.19;5071971;28;20286;-54
2023/04/03 06:37:29;;;;;;;17.47;7.93;;;;;;;13.02;57.86;98797.94;5071865;28;20262;-52
2023/04/03 06:40:20;;;;;;;19.13;8.23;;;;;;;12.98;58.02;98804.22;5070797;28;20207;-51
2023/04/03 06:43:09;;;;;;;14.00;7.30;;;;;;;13.08;57.88;98804.63;5092221;28;20709;-52
2023/04/03 06:46:03;;;;;;;20.33;7.83;;;;;;;13.37;56.29;98809.22;5092070;28;20222;-52
2023/04/03 06:49:10;;;;;;;8.53;7.17;;;;;;;13.79;55.12;98826.97;5092339;28;20214;-52
2023/04/03 06:54:57;;;;;;;14.90;7.30;;;;;;;14.83;51.90;98827.38;5065356;28;20223;-55
2023/04/03 07:00:51;;;;;;;7.97;6.03;;;;;;;15.44;49.82;98828.19;5090789;28;20363;-52
2023/04/03 07:03:35;;;;;;;8.80;5.50;;;;;;;15.74;48.67;98821.13;5090850;28;20260;-51
2023/04/03 07:06:30;;;;;;;;;;;;;;;;;;;;;
2023/04/03 07:15:35;;;;;;;13.73;5.73;;;;;;;17.07;45.52;98839.75;5086837;28;20278;-54
2023/04/03 07:21:34;;;;;;;9.03;5.17;;;;;;;16.73;45.32;98837.66;5081116;28;20204;-55
2023/04/03 07:24:21;;;;;;;9.93;5.80;;;;;;;16.37;46.54;98836.41;5072362;28;20216;-52
2023/04/03 07:27:16;;;;;;;10.20;5.33;;;;;;;16.40;46.68;98828.34;5068986;28;20211;-51
2023/04/03 07:30:03;;;;;;;5.37;4.87;;;;;;;16.38;46.70;98838.09;5070328;28;20239;-52
2023/04/03 07:36:00;;;;;;;4.93;4.53;;;;;;;15.82;47.95;98823.28;5044723;28;20306;-51
2023/04/03 07:39:06;;;;;;;4.97;4.57;;;;;;;15.39;49.00;98806.69;5070719;28;20668;-51
2023/04/03 07:42:13;;;;;;;7.27;4.63;;;;;;;15.43;49.29;98821.28;5070831;28;20200;-53
2023/04/03 07:48:00;;;;;;;5.40;4.90;;;;;;;15.01;49.79;98811.56;5070924;28;20218;-55
2023/04/03 07:53:21;;;;;;;8.20;2.90;;;;;;;14.96;49.62;98814.44;5069668;28;20204;-55
2023/04/03 07:56:09;;;;;;;3.97;3.57;;;;;;;14.85;49.52;98816.84;5070592;28;20222;-54
2023/04/03 08:04:48;;;;;;;2.80;2.60;;;;;;;15.54;47.57;98800.56;5067360;28;20211;-55
2023/04/03 08:10:47;;;;;;;6.17;3.80;;;;;;;15.92;46.39;98800.84;5068453;28;20278;-54
2023/04/03 08:13:52;;;;;;;5.17;3.83;;;;;;;16.20;46.22;98800.81;5069635;28;20236;-55
2023/04/03 08:16:35;;;;;;;8.97;5.40;;;;;;;16.34;46.05;98802.56;5068636;28;20675;-53
2023/04/03 08:19:16;;;;;;;6.50;4.90;;;;;;;16.63;45.33;98796.31;5069710;28;20195;-55
2023/04/03 08:22:22;;;;;;;10.97;5.80;;;;;;;16.68;45.47;98793.41;5068572;28;20582;-55
2023/04/03 08:25:25;;;;;;;17.27;10.20;;;;;;;16.67;45.58;98789.94;5069352;28;20324;-55
2023/04/03 08:28:24;;;;;;;31.10;10.57;;;;;;;16.60;45.69;98796.47;5069765;28;20218;-55
2023/04/03 08:31:34;;;;;;;17.93;9.93;;;;;;;16.70;46.07;98788.91;5076130;28;20242;-53
2023/04/03 08:34:24;;;;;;;13.87;9.67;;;;;;;16.64;46.52;98791.91;5089633;28;20203;-52
2023/04/03 08:47:18;;;;;;;12.17;6.77;;;;;;;15.70;48.40;98762.06;5086074;28;20701;-54
2023/04/03 08:50:21;;;;;;;9.00;5.20;;;;;;;15.47;48.90;98739.06;5089639;28;20199;-55
2023/04/03 08:53:27;;;;;;;8.80;5.67;;;;;;;15.55;49.32;98753.41;5089499;28;20191;-53
2023/04/03 08:55:55;;;;;;;6.07;5.47;;;;;;;15.56;49.43;98746.41;5088512;28;20602;-53
2023/04/03 08:58:56;;;;;;;8.07;5.00;;;;;;;15.61;48.83;98736.50;5088643;28;20197;-54
2023/04/03 09:02:06;;;;;;;8.50;5.27;;;;;;;15.39;49.52;98738.72;5081499;28;20208;-53
2023/04/03 09:05:25;;;;;;;7.47;5.03;;;;;;;15.21;50.37;98746.75;5089466;28;20203;-53
2023/04/03 09:27:36;;;;;;;8.87;5.63;;;;;;;15.09;53.98;98739.63;5086536;28;20199;-52
2023/04/03 09:30:54;;;;;;;5.87;4.03;;;;;;;15.05;53.25;98745.94;5082058;28;20207;-56
2023/04/03 09:33:30;;;;;;;4.20;3.50;;;;;;;14.92;51.65;98742.38;5089008;28;20933;-53
2023/04/03 09:37:12;;;;;;;11.20;4.27;;;;;;;14.78;51.13;98734.53;5068989;28;20655;-56
2023/04/03 09:47:03;;;;;;;5.03;3.60;;;;;;;14.58;52.68;98729.59;5088336;28;20230;-53
2023/04/03 09:49:46;;;;;;;5.43;3.73;;;;;;;14.57;53.27;98728.75;5089194;28;20671;-54
2023/04/03 09:52:33;;;;;;;7.13;3.73;;;;;;;14.57;53.26;98718.31;5077466;28;20710;-55
2023/04/03 09:55:38;;;;;;;5.60;2.80;;;;;;;14.49;53.67;98702.25;5090007;28;20286;-53
2023/04/03 09:58:54;;;;;;;8.27;3.77;;;;;;;14.38;54.89;98691.53;5088632;28;20225;-51
2023/04/03 10:01:52;;;;;;;6.20;3.50;;;;;;;14.39;54.75;98695.84;5091785;28;20238;-53
2023/04/03 10:05:01;;;;;;;14.37;5.70;;;;;;;14.50;55.79;98719.59;5089857;28;20215;-52
2023/04/03 10:08:28;;;;;;;12.23;5.00;;;;;;;14.60;58.11;98722.50;5090721;28;20219;-54
2023/04/03 10:11:41;;;;;;;8.40;4.53;;;;;;;14.66;59.57;98722.19;5091891;28;20780;-55
2023/04/03 10:14:46;;;;;;;9.40;5.07;;;;;;;14.65;60.20;98707.44;5090687;28;20606;-54
2023/04/03 10:21:06;;;;;;;4.87;3.90;;;;;;;14.42;60.38;98693.94;5090231;28;20223;-52
2023/04/03 10:24:28;;;;;;;6.07;4.83;;;;;;;14.39;60.33;98696.72;5091223;28;20227;-54
2023/04/03 10:27:30;;;;;;;5.03;4.47;;;;;;;14.37;62.08;98706.38;5090747;28;20218;-53
2023/04/03 10:30:46;;;;;;;12.03;4.17;;;;;;;14.36;63.00;98703.84;5090124;28;20250;-54
2023/04/03 10:37:00;;;;;;;5.63;4.17;;;;;;;14.43;62.41;98706.06;5071744;28;20223;-52
2023/04/03 10:40:12;;;;;;;9.03;5.07;;;;;;;14.53;62.92;98711.59;5072375;28;20671;-53
2023/04/03 10:43:15;;;;;;;7.20;5.83;;;;;;;14.43;63.05;98710.44;5072205;28;20192;-50
2023/04/03 10:46:10;;;;;;;9.13;7.10;;;;;;;14.44;65.89;98712.97;5071597;28;20721;-52
2023/04/03 10:52:25;;;;;;;9.17;5.80;;;;;;;14.40;65.11;98727.13;5070951;28;20291;-52
2023/04/03 10:55:48;;;;;;;7.23;5.73;;;;;;;14.20;66.42;98724.75;5091107;28;20202;-53
2023/04/03 11:02:15;;;;;;;6.37;4.93;;;;;;;14.22;70.07;98709.84;5090893;28;20199;-52
2023/04/03 11:05:29;;;;;;;7.93;5.53;;;;;;;14.30;71.94;98717.25;5079347;28;20655;-52
2023/04/03 11:08:36;;;;;;;9.70;5.43;;;;;;;14.20;72.36;98735.22;5071184;28;20198;-51
2023/04/03 11:11:28;;;;;;;12.57;5.70;;;;;;;14.17;76.01;98725.78;5071246;28;20227;-51
2023/04/03 11:14:22;;;;;;;9.03;6.70;;;;;;;14.00;80.30;98717.19;5082479;28;20272;-53
2023/04/03 11:17:30;;;;;;;8.83;5.13;;;;;;;14.05;78.61;98721.22;5070058;28;20204;-52
2023/04/03 11:20:44;;;;;;;6.77;5.40;;;;;;;14.04;81.20;98722.16;5070827;28;20200;-53
2023/04/03 11:26:17;;;;;;;4.70;4.30;;;;;;;13.81;83.87;98715.59;5077608;28;20211;-51
2023/04/03 11:29:01;;;;;;;6.00;5.27;;;;;;;13.86;88.15;98704.06;5089977;28;20275;-51
2023/04/03 11:31:50;;;;;;;5.30;4.20;;;;;;;13.90;92.04;98695.97;5089999;28;20241;-51
2023/04/03 11:34:40;;;;;;;5.60;5.07;;;;;;;14.00;92.05;98706.75;5087967;28;20644;-51
2023/04/03 11:37:32;;;;;;;4.07;3.87;;;;;;;13.99;93.81;98698.09;5086388;28;20579;-52
2023/04/03 11:40:04;;;;;;;4.63;4.23;;;;;;;14.01;92.53;98696.22;5088396;28;20752;-52
2023/04/03 11:42:53;;;;;;;4.50;4.10;;;;;;;14.04;90.95;98676.97;5087223;28;20640;-52
2023/04/03 11:45:59;;;;;;;6.20;5.70;;;;;;;14.13;91.18;98690.31;5088337;28;20203;-50
2023/04/03 11:48:58;;;;;;;7.10;6.20;;;;;;;14.25;91.83;98690.56;5089195;28;20191;-51
2023/04/03 11:51:55;;;;;;;6.23;5.70;;;;;;;14.27;90.22;98681.72;5086404;28;20195;-53
2023/04/03 11:54:59;;;;;;;6.57;5.27;;;;;;;14.32;90.67;98692.75;5086939;28;20195;-52
2023/04/03 11:58:04;;;;;;;5.23;4.80;;;;;;;14.30;92.24;98688.53;5042716;28;20594;-54
2023/04/03 12:01:13;;;;;;;8.30;6.90;;;;;;;14.26;93.03;98681.81;5088055;28;20720;-55
2023/04/03 12:04:14;;;;;;;15.53;9.10;;;;;;;14.16;95.95;98681.50;5088815;28;20231;-51
2023/04/03 12:06:57;;;;;;;13.00;9.30;;;;;;;14.15;97.05;98680.66;5086226;28;20227;-52
2023/04/03 12:09:54;;;;;;;9.87;7.77;;;;;;;14.01;97.50;98661.47;5086270;28;20283;-51
2023/04/03 12:12:40;;;;;;;10.30;8.63;;;;;;;13.97;100.00;98663.44;5082992;28;20572;-50
2023/04/03 12:15:53;;;;;;;10.07;9.00;;;;;;;13.98;100.00;98662.50;5083581;28;20644;-50
2023/04/03 12:18:48;;;;;;;7.80;6.57;;;;;;;13.90;100.00;98663.84;5088450;28;20199;-52
2023/04/03 12:21:23;;;;;;;7.33;6.60;;;;;;;13.87;100.00;98666.63;5087754;28;20631;-52
2023/04/03 12:24:29;;;;;;;10.60;7.00;;;;;;;13.80;100.00;98663.50;5087209;28;20226;-53
2023/04/03 12:27:47;;;;;;;8.43;7.20;;;;;;;13.70;100.00;98657.13;5087863;28;20652;-53
2023/04/03 12:30:47;;;;;;;8.47;6.53;;;;;;;13.61;100.00;98653.25;5085433;28;20195;-54
2023/04/03 12:33:56;;;;;;;7.27;6.53;;;;;;;13.43;100.00;98649.06;5082128;28;20223;-53
2023/04/03 12:36:56;;;;;;;6.87;5.67;;;;;;;13.35;100.00;98640.78;5086528;28;20225;-52
2023/04/03 12:40:07;;;;;;;10.57;6.97;;;;;;;13.25;100.00;98637.00;5086043;28;20195;-50
2023/04/03 12:43:14;;;;;;;14.27;6.97;;;;;;;13.33;100.00;98624.41;5089667;28;20692;-49
2023/04/03 12:46:07;;;;;;;12.23;6.90;;;;;;;13.31;100.00;98636.69;5089263;28;20582;-51
2023/04/03 12:49:08;;;;;;;12.47;7.80;;;;;;;13.26;100.00;98631.72;5088590;28;20195;-50
2023/04/03 12:51:57;;;;;;;20.07;7.67;;;;;;;13.14;100.00;98640.19;5089875;28;20204;-52
2023/04/03 12:54:57;;;;;;;12.80;6.63;;;;;;;13.17;100.00;98633.97;5089769;28;20195;-52
2023/04/03 12:57:53;;;;;;;14.10;8.03;;;;;;;13.04;100.00;98621.56;5089535;28;20198;-54
2023/04/03 13:00:47;;;;;;;13.87;7.80;;;;;;;13.13;100.00;98624.59;5089484;28;20721;-54
2023/04/03 13:03:40;;;;;;;12.00;6.80;;;;;;;13.07;100.00;98621.41;5089304;28;20625;-56
2023/04/03 13:06:38;;;;;;;;;;;;;;;;;;;;;
2023/04/03 13:09:29;;;;;;;11.80;7.77;;;;;;;13.18;100.00;98612.22;5078135;28;20199;-55
2023/04/03 13:12:20;;;;;;;12.53;6.73;;;;;;;13.19;100.00;98616.50;5089881;28;20572;-52
2023/04/03 13:18:20;;;;;;;7.43;6.27;;;;;;;12.97;100.00;98607.19;5088520;28;20385;-52
2023/04/03 13:21:04;;;;;;;8.60;6.77;;;;;;;12.83;100.00;98601.03;5089283;28;20598;-51
2023/04/03 13:23:43;;;;;;;8.20;7.40;;;;;;;12.78;100.00;98597.81;5082320;28;20227;-52
2023/04/03 13:26:14;;;;;;;7.57;6.97;;;;;;;12.66;100.00;98588.88;5086944;28;20618;-49
2023/04/03 13:28:46;;;;;;;10.90;9.80;;;;;;;12.67;100.00;98591.38;5090254;28;20253;-53
2023/04/03 13:31:31;;;;;;;10.43;9.27;;;;;;;12.68;100.00;98593.09;5091478;28;20219;-53
2023/04/03 13:34:14;;;;;;;9.93;8.13;;;;;;;12.69;100.00;98589.56;5089224;28;20219;-53
2023/04/03 13:37:03;;;;;;;12.67;8.47;;;;;;;12.69;100.00;98591.31;5089496;28;20214;-53
2023/04/03 13:39:43;;;;;;;9.03;8.17;;;;;;;12.59;100.00;98584.91;5085682;28;20218;-53
2023/04/03 13:42:36;;;;;;;9.80;8.77;;;;;;;12.64;100.00;98583.72;5091010;28;20213;-54
2023/04/03 13:45:29;;;;;;;9.70;8.43;;;;;;;12.71;100.00;98576.47;5087123;28;20313;-51
2023/04/03 13:48:31;;;;;;;9.47;7.90;;;;;;;12.67;100.00;98564.50;5091086;28;20222;-51
2023/04/03 13:51:27;;;;;;;12.53;8.40;;;;;;;12.66;100.00;98562.84;5091723;28;20195;-51
2023/04/03 13:54:46;;;;;;;;;;;;;;;;;;;;;
2023/04/03 14:00:58;;;;;;;13.30;11.43;;;;;;;12.77;100.00;98539.69;5089180;28;20199;-51
2023/04/03 14:03:53;;;;;;;15.43;13.87;;;;;;;12.74;100.00;98534.66;5090151;28;20206;-50
2023/04/03 14:06:25;;;;;;;15.50;12.50;;;;;;;12.64;100.00;98534.28;5091756;28;20191;-51
2023/04/03 14:09:16;;;;;;;15.47;12.50;;;;;;;12.61;100.00;98518.00;5092094;28;20203;-51
2023/04/03 14:14:54;;;;;;;15.43;13.93;;;;;;;12.65;100.00;98512.53;5090652;28;20571;-50
2023/04/03 14:17:55;;;;;;;14.87;13.33;;;;;;;12.59;100.00;98517.22;5072540;28;20491;-54
2023/04/03 14:21:07;;;;;;;13.50;11.97;;;;;;;12.64;100.00;98525.66;5090585;28;20190;-53
2023/04/03 14:24:19;;;;;;;14.60;11.73;;;;;;;12.64;100.00;98521.25;5092478;28;20286;-54
2023/04/03 14:30:22;;;;;;;14.83;11.97;;;;;;;12.64;100.00;98523.06;5088422;28;20241;-54
2023/04/03 14:33:27;;;;;;;13.73;11.80;;;;;;;12.59;100.00;98527.63;5091196;28;20219;-55
2023/04/03 14:36:19;;;;;;;13.93;10.63;;;;;;;12.61;100.00;98524.03;5091747;28;20318;-54
2023/04/03 14:38:54;;;;;;;12.43;11.17;;;;;;;12.61;100.00;98520.59;5090136;28;20223;-55
2023/04/03 14:41:47;;;;;;;13.17;11.40;;;;;;;12.63;100.00;98521.38;5090225;28;20237;-54
2023/04/03 14:47:34;;;;;;;12.90;10.30;;;;;;;12.53;100.00;98520.13;5089790;28;20306;-55
2023/04/03 14:50:28;;;;;;;12.60;10.33;;;;;;;12.38;100.00;98516.59;5092019;28;20195;-54
2023/04/03 14:53:39;;;;;;;11.17;10.07;;;;;;;12.23;100.00;98506.97;5090145;28;20211;-54
2023/04/03 14:56:27;;;;;;;12.73;11.13;;;;;;;12.13;100.00;98506.59;5091497;28;20335;-55
2023/04/03 14:59:24;;;;;;;13.80;12.33;;;;;;;12.18;100.00;98503.78;5091192;28;20191;-54
2023/04/03 15:02:39;;;;;;;18.73;12.93;;;;;;;12.14;100.00;98505.69;5091024;28;20195;-50
2023/04/03 15:08:56;;;;;;;33.27;19.73;;;;;;;12.16;100.00;98500.41;5090467;28;20223;-50
2023/04/03 15:18:04;;;;;;;19.27;13.67;;;;;;;12.10;100.00;98472.09;5090931;28;20655;-52
2023/04/03 15:33:09;;;;;;;25.43;16.60;;;;;;;12.00;100.00;98463.94;5087859;28;20213;-52
2023/04/03 15:39:09;;;;;;;28.03;18.10;;;;;;;12.00;100.00;98437.94;5090302;28;20238;-51
2023/04/03 15:42:13;;;;;;;27.87;17.97;;;;;;;11.90;100.00;98436.72;5090679;28;20230;-52
2023/04/03 15:47:50;;;;;;;19.97;11.93;;;;;;;11.82;100.00;98434.53;5089499;28;20258;-53
2023/04/03 15:50:43;;;;;;;23.17;13.17;;;;;;;11.76;100.00;98428.78;5090292;28;20191;-52
2023/04/03 15:56:34;;;;;;;17.50;11.27;;;;;;;11.71;100.00;98429.00;5086904;28;20256;-52
2023/04/03 15:59:29;;;;;;;19.53;11.80;;;;;;;11.75;100.00;98421.88;5090898;28;20655;-51
2023/04/03 16:02:35;;;;;;;22.30;13.53;;;;;;;11.79;100.00;98413.88;5090540;28;20713;-52
2023/04/03 16:05:30;;;;;;;27.50;14.40;;;;;;;11.72;100.00;98406.44;5090364;28;20742;-55
2023/04/03 16:08:25;;;;;;;20.03;14.33;;;;;;;11.70;100.00;98408.28;5084931;28;20215;-54
2023/04/03 16:11:21;;;;;;;28.13;15.30;;;;;;;11.66;100.00;98397.19;5090683;28;20199;-55
2023/04/03 16:14:37;;;;;;;24.67;14.70;;;;;;;11.64;100.00;98394.66;5087359;28;20223;-54
2023/04/03 16:17:16;;;;;;;21.73;13.93;;;;;;;11.69;100.00;98386.66;5089681;28;20196;-54
2023/04/03 16:20:09;;;;;;;22.97;15.13;;;;;;;11.69;100.00;98385.81;5090226;28;20195;-51
2023/04/03 16:23:15;;;;;;;22.70;15.60;;;;;;;11.63;100.00;98377.38;5087588;28;20298;-52
2023/04/03 16:25:52;;;;;;;19.83;14.97;;;;;;;11.59;100.00;98368.09;5089626;28;20203;-54
2023/04/03 16:28:25;;;;;;;20.97;14.23;;;;;;;11.58;100.00;98361.22;5089936;28;20268;-56
2023/04/03 16:31:05;;;;;;;17.40;11.83;;;;;;;11.51;100.00;98349.44;5090262;28;20201;-55
2023/04/03 16:33:42;;;;;;;25.67;13.43;;;;;;;11.47;100.00;98350.53;5090135;28;20206;-54
2023/04/03 16:36:15;;;;;;;18.70;11.73;;;;;;;11.43;100.00;98341.19;5075405;28;20219;-53
2023/04/03 16:38:50;;;;;;;19.83;12.53;;;;;;;11.43;100.00;98333.41;5068284;28;20216;-53
2023/04/03 16:41:30;;;;;;;19.83;13.27;;;;;;;11.45;100.00;98328.97;5068332;28;20233;-55
2023/04/03 16:44:20;;;;;;;16.90;12.00;;;;;;;11.42;100.00;98326.53;5069187;28;20784;-53
2023/04/03 16:47:18;;;;;;;22.50;13.60;;;;;;;11.32;100.00;98325.31;5068523;28;20350;-54
2023/04/03 16:49:59;;;;;;;16.10;11.60;;;;;;;11.31;100.00;98302.84;5066452;28;20251;-54
2023/04/03 16:52:31;;;;;;;15.53;10.57;;;;;;;11.33;100.00;98306.22;5075879;28;20619;-53
2023/04/03 16:55:18;;;;;;;22.33;12.67;;;;;;;11.31;100.00;98287.25;5088979;28;20225;-54
2023/04/03 16:57:55;;;;;;;23.40;14.57;;;;;;;11.35;100.00;98294.00;5088120;28;20288;-53
2023/04/03 17:00:56;;;;;;;25.17;17.33;;;;;;;11.39;100.00;98303.31;5089535;28;20253;-53
2023/04/03 17:03:48;;;;;;;26.10;14.90;;;;;;;11.43;100.00;98310.00;5087979;28;20676;-54
2023/04/03 17:06:32;;;;;;;21.00;14.23;;;;;;;11.34;100.00;98268.94;5089302;28;20255;-52
2023/04/03 17:09:08;;;;;;;21.30;14.33;;;;;;;11.43;100.00;98285.78;5088824;28;20619;-53
2023/04/03 17:12:03;;;;;;;26.27;17.17;;;;;;;11.40;100.00;98271.19;5089089;28;20261;-53